Aérodrome :







RETROUVEZ-NOUS SUR...

 
LOGIN :

S'inscrire | Disclaimer

   EN    FR    IT 

 









Légende :    VFR   VFR Marginal   IFR   IFR Intensif   IFR Très Intensif
Visi : 
Plafond : 
>= 8 km
>= 3000ft
5 à 8 km
1000 à 3000 ft
1500m à 5 km
500 à 1000 ft
800 à 1500m
200 à 500 ft
< 800m
< 200 ft
Symboles :   Orages  Brouillard  Fortes neiges  Fortes précipitations  Vent > 20 kt






- Altitude de l'aérodrome : 534 ft
- Code IATA : PQI


KPQI - Northern Maine Regional Arpt At Presque Isle

DERNIER METAR :
  • 261656Z AUTO 35008KT 10SM CLR 01/M06 A3009 RMK AO2 SLP222 T00111061

METARs EXPIRÉS :
  • 261556Z AUTO 35009KT 10SM CLR 00/M06 A3011 RMK AO2 SLP229 T00001061
  • 261456Z AUTO 36009KT 10SM CLR 01/M07 A3011 RMK AO2 SLP231 T00111067 51011

TAF KPQI
Valide du 26 à 18h jusqu'au 27 à 18h UTC


261720Z 2618/2718 36005KT P6SM SCT120 OVC200
FM270100 03005KT P6SM BKN090 OVC150
FM270400 05005KT P6SM OVC030
FM270800 07007KT P6SM OVC018
FM271200 08011G20KT 6SM -SHSN OVC022
FM271500 08016G25KT 3SM -SN OVC016
FM271630 08017G26KT 1SM -SN OVC010 WS020/10045KT



MET'MAP, la Météo Aéronautique d'un coup d'oeil ! - Copyright ORBIFLY Décembre 2007 - Disclaimer

ORBIFLY MET'MAP TEAM :

Programmation & Développement : Alexandra Zaïnal
Sur une idée originale de : Baudouin d'Aumeries
Assistance à la programmation : Marc-Olivier Méhu
Soutien technique & logistique : Manuel Goepfert

Contact : metmap@orbifly.com




SOURCES & CREDITS :

   NOAA